Terminal Aerodrome Forecast
Issued by NWS Huntsville, AL

Home | Current Version | Previous Version | Text Only | Print | Product List | Glossary On
Versions: 1 2 3 4 5 6 7 8 9 10 11 12 13 14 15 16 17 18 19 20 21 22 23 24 25 26 27 28 29 30 31 32 33 34
000
FTUS44 KHUN 270646 AAB
TAFMSL
TAF AMD
KMSL 270646Z 2707/2806 18005KT P6SM BKN009
      TEMPO 2707/2711 SCT009
     FM271300 21005KT P6SM SCT015
     FM271600 24006KT P6SM BKN025
     FM271800 24008KT P6SM VCTS SCT035CB
     FM280100 19002KT P6SM BKN250=

USA.gov is the U.S. government's official web portal to all federal, state and local government web resources and services.